Time;durP1;ratioP1;P1;durP2;ratioP2;P2;SDS_P1;SDS_P2;PMS_P1;PMS_P2;Temp;Humidity;BMP_temperature;BMP_pressure;BME280_temperature;BME280_humidity;BME280_pressure;Samples;Min_cycle;Max_cycle;Signal;HPM_P1;HPM_P2
2021/05/21 00:02:05;;;;;;;15.90;3.03;;;;;;;16.26;54.55;100697.69;5033633;28;20037;-87
2021/05/21 00:04:31;;;;;;;15.27;3.17;;;;;;;16.13;54.39;100695.56;5033363;28;20385;-85
2021/05/21 00:06:57;;;;;;;16.63;2.88;;;;;;;16.02;54.31;100681.84;5026652;28;20038;-87
2021/05/21 00:09:24;;;;;;;19.70;3.25;;;;;;;15.88;54.28;100676.25;5018551;28;20048;-89
2021/05/21 00:11:50;;;;;;;21.88;4.20;;;;;;;15.73;54.60;100696.47;5025086;28;20060;-88
2021/05/21 00:14:18;;;;;;;18.92;3.78;;;;;;;15.57;55.15;100689.13;5028838;28;20473;-89
2021/05/21 00:16:45;;;;;;;21.23;3.45;;;;;;;15.73;54.31;100686.66;5030438;28;20048;-88
2021/05/21 00:19:11;;;;;;;14.82;2.97;;;;;;;15.57;54.98;100691.78;5031229;28;20534;-88
2021/05/21 00:21:38;;;;;;;13.50;2.83;;;;;;;15.51;55.18;100698.28;5030282;28;20048;-88
2021/05/21 00:24:05;;;;;;;18.33;3.10;;;;;;;15.44;55.53;100690.56;5027503;28;20033;-88
2021/05/21 00:26:31;;;;;;;18.13;3.35;;;;;;;15.66;54.91;100682.50;5034629;28;20030;-89
2021/05/21 00:28:58;;;;;;;23.08;4.03;;;;;;;15.61;55.02;100680.03;5034271;28;20079;-87
2021/05/21 00:31:24;;;;;;;15.82;3.83;;;;;;;15.73;54.84;100678.63;5025704;28;20037;-87
2021/05/21 00:33:51;;;;;;;19.92;4.03;;;;;;;15.53;55.55;100688.38;5022624;28;20026;-89
2021/05/21 00:36:18;;;;;;;18.45;4.03;;;;;;;15.26;54.48;100676.22;5028206;28;20029;-88
2021/05/21 00:38:45;;;;;;;28.83;3.92;;;;;;;15.27;54.20;100699.31;5026185;28;20038;-90
2021/05/21 00:41:11;;;;;;;22.63;3.40;;;;;;;15.20;54.17;100707.56;5033911;28;20189;-87
2021/05/21 00:43:38;;;;;;;12.93;3.35;;;;;;;15.58;53.36;100665.97;5034626;28;20465;-86
2021/05/21 00:46:04;;;;;;;22.38;3.60;;;;;;;14.81;54.29;100676.25;5023203;28;20048;-89
2021/05/21 00:48:32;;;;;;;20.00;3.20;;;;;;;15.14;53.29;100670.47;5023537;28;20025;-89
2021/05/21 00:50:58;;;;;;;22.00;3.70;;;;;;;15.11;53.28;100665.25;5025457;28;20121;-87
2021/05/21 00:53:29;;;;;;;18.80;3.20;;;;;;;14.93;53.57;100666.91;5030926;28;20025;-87
2021/05/21 00:55:58;;;;;;;16.45;3.55;;;;;;;14.86;52.76;100668.91;5021289;28;20044;-86
2021/05/21 00:58:26;;;;;;;22.77;3.35;;;;;;;14.98;52.48;100654.22;5021790;28;20405;-89
2021/05/21 01:00:54;;;;;;;14.77;3.53;;;;;;;14.66;53.90;100674.22;5026284;28;20516;-88
2021/05/21 01:03:21;;;;;;;21.42;3.42;;;;;;;14.44;54.22;100667.00;5033811;28;20366;-88
2021/05/21 01:05:47;;;;;;;20.17;3.67;;;;;;;14.50;54.55;100660.56;5034057;28;20029;-87
2021/05/21 01:08:15;;;;;;;20.67;3.85;;;;;;;14.05;56.64;100648.97;5017544;28;20022;-87
2021/05/21 01:10:42;;;;;;;21.75;2.83;;;;;;;14.09;56.50;100639.91;5030260;28;20112;-86
2021/05/21 01:13:09;;;;;;;20.75;3.97;;;;;;;14.31;56.58;100636.44;5027179;28;20037;-88
2021/05/21 01:15:39;;;;;;;25.35;4.25;;;;;;;13.98;57.33;100655.44;5031172;28;20025;-88
2021/05/21 01:18:08;;;;;;;15.70;2.78;;;;;;;14.19;57.38;100633.34;5031221;28;20037;-89
2021/05/21 01:20:36;;;;;;;17.30;4.57;;;;;;;14.06;58.14;100614.25;5020171;28;20029;-89
2021/05/21 01:23:04;;;;;;;26.85;4.28;;;;;;;13.75;59.65;100604.75;5032678;28;20499;-89
2021/05/21 01:25:33;;;;;;;19.05;3.00;;;;;;;13.76;59.67;100603.00;5032943;28;20039;-89
2021/05/21 01:28:00;;;;;;;23.58;4.05;;;;;;;13.74;60.36;100596.84;5033168;28;20036;-88
2021/05/21 01:30:28;;;;;;;26.52;4.40;;;;;;;13.81;60.01;100590.38;5034011;28;20120;-89
2021/05/21 01:32:56;;;;;;;23.33;3.83;;;;;;;13.89;60.37;100587.41;5033124;28;20025;-88
2021/05/21 01:35:22;;;;;;;19.80;3.67;;;;;;;13.79;60.17;100578.91;5033466;28;20040;-89
2021/05/21 01:37:50;;;;;;;25.83;4.00;;;;;;;13.97;59.94;100571.13;5033203;28;20088;-90
2021/05/21 01:40:17;;;;;;;30.40;4.80;;;;;;;13.92;60.67;100568.66;5029411;28;20028;-89
2021/05/21 01:42:43;;;;;;;18.35;3.70;;;;;;;13.91;60.31;100562.44;5033079;28;20036;-87
2021/05/21 01:45:11;;;;;;;20.20;3.85;;;;;;;14.00;59.78;100561.22;5033058;28;20037;-87
2021/05/21 01:47:38;;;;;;;20.67;3.85;;;;;;;14.10;59.46;100567.06;5033483;28;20030;-87
2021/05/21 01:50:06;;;;;;;23.98;4.13;;;;;;;14.07;60.02;100562.72;5034146;28;20030;-87
2021/05/21 01:52:32;;;;;;;21.17;3.60;;;;;;;14.19;59.54;100558.72;5034766;28;20033;-87
2021/05/21 01:55:00;;;;;;;19.52;4.38;;;;;;;14.07;59.48;100545.88;5027493;28;20072;-83
2021/05/21 01:57:26;;;;;;;22.83;4.18;;;;;;;14.10;59.68;100545.75;5033862;28;20037;-87
2021/05/21 01:59:53;;;;;;;28.35;4.63;;;;;;;14.13;59.86;100540.31;5034779;28;20025;-89
2021/05/21 02:02:19;;;;;;;28.70;3.30;;;;;;;14.13;59.45;100532.31;5032328;28;20034;-89
2021/05/21 02:04:47;;;;;;;25.65;4.20;;;;;;;14.04;59.50;100535.34;5033165;28;20083;-85
2021/05/21 02:07:16;;;;;;;28.50;4.80;;;;;;;14.23;59.16;100523.03;5032514;28;20022;-85
2021/05/21 02:09:53;;;;;;;23.23;3.95;;;;;;;14.05;59.25;100516.63;5032640;28;20029;-87
2021/05/21 02:12:20;;;;;;;22.98;3.65;;;;;;;14.05;58.67;100521.09;5031280;28;20030;-85
2021/05/21 02:14:46;;;;;;;23.95;3.97;;;;;;;14.04;59.08;100524.69;5032672;28;20106;-87
2021/05/21 02:17:12;;;;;;;16.85;3.40;;;;;;;14.05;58.79;100521.94;5032441;28;20121;-88
2021/05/21 02:19:39;;;;;;;21.45;4.28;;;;;;;14.18;58.37;100510.81;5032478;28;20087;-88
2021/05/21 02:22:07;;;;;;;24.30;4.10;;;;;;;14.12;58.98;100503.94;5032321;28;20481;-86
2021/05/21 02:24:35;;;;;;;21.08;3.75;;;;;;;13.99;59.18;100521.34;5032184;28;20032;-88
2021/05/21 02:27:01;;;;;;;20.70;4.15;;;;;;;14.04;58.75;100508.69;5032678;28;20111;-88
2021/05/21 02:29:28;;;;;;;18.95;4.50;;;;;;;14.04;59.04;100516.69;5032484;28;20042;-89
2021/05/21 02:31:54;;;;;;;28.08;4.80;;;;;;;13.86;59.30;100505.84;5032627;28;20013;-89
2021/05/21 02:34:21;;;;;;;16.33;3.72;;;;;;;13.94;58.94;100502.00;5031981;28;20087;-85
2021/05/21 02:36:47;;;;;;;27.73;4.93;;;;;;;13.94;58.76;100512.66;5032842;28;20096;-88
2021/05/21 02:39:14;;;;;;;25.60;4.22;;;;;;;13.87;59.64;100512.91;5032103;28;20052;-88
2021/05/21 02:41:41;;;;;;;18.92;3.92;;;;;;;13.90;59.24;100512.78;5032545;28;20056;-89
2021/05/21 02:44:07;;;;;;;25.75;3.90;;;;;;;13.78;60.00;100509.72;5032379;28;20034;-87
2021/05/21 02:46:33;;;;;;;23.33;3.28;;;;;;;13.73;60.29;100507.25;5031544;28;20107;-87
2021/05/21 02:49:00;;;;;;;20.13;3.90;;;;;;;13.73;60.20;100504.56;5032314;28;20033;-88
2021/05/21 02:51:26;;;;;;;26.13;4.15;;;;;;;13.68;60.54;100499.44;5029840;28;20497;-87
2021/05/21 02:53:53;;;;;;;21.42;3.85;;;;;;;13.69;60.13;100500.31;5029162;28;20495;-89
2021/05/21 02:56:19;;;;;;;28.90;4.32;;;;;;;13.37;61.37;100497.94;5032173;28;20030;-87
2021/05/21 02:58:46;;;;;;;14.25;3.17;;;;;;;13.37;61.06;100497.94;5032746;28;20389;-88
2021/05/21 03:01:12;;;;;;;24.90;3.55;;;;;;;13.59;60.26;100487.34;5035465;28;20030;-89
2021/05/21 03:03:38;;;;;;;22.15;4.53;;;;;;;13.78;60.05;100486.63;5037304;28;20108;-87
2021/05/21 03:06:05;;;;;;;25.95;3.65;;;;;;;13.66;60.03;100487.97;5035979;28;20033;-91
2021/05/21 03:08:31;;;;;;;29.58;4.75;;;;;;;13.51;60.69;100492.09;5035318;28;20033;-85
2021/05/21 03:10:58;;;;;;;27.88;5.38;;;;;;;13.47;60.30;100487.81;5035895;28;20048;-84
2021/05/21 03:13:25;;;;;;;25.05;5.35;;;;;;;13.64;59.97;100473.84;5035539;28;20445;-88
2021/05/21 03:15:52;;;;;;;31.63;5.38;;;;;;;13.67;59.85;100479.06;5035358;28;20036;-84
2021/05/21 03:18:22;;;;;;;26.45;3.90;;;;;;;13.59;60.08;100482.03;5035841;28;20061;-89
2021/05/21 03:20:49;;;;;;;18.42;3.20;;;;;;;13.71;59.53;100480.69;5022056;28;20037;-88
2021/05/21 03:23:16;;;;;;;27.83;5.05;;;;;;;13.50;60.71;100474.38;5036000;28;20120;-85
2021/05/21 03:25:43;;;;;;;26.65;4.82;;;;;;;13.42;60.68;100480.00;5035347;28;20033;-89
2021/05/21 03:28:11;;;;;;;26.33;4.03;;;;;;;13.43;60.74;100486.19;5035433;28;20029;-88
2021/05/21 03:30:39;;;;;;;21.70;4.07;;;;;;;13.66;59.94;100471.16;5035332;28;20029;-88
2021/05/21 03:33:07;;;;;;;25.83;3.90;;;;;;;13.43;59.98;100478.19;5034299;28;20083;-88
2021/05/21 03:35:35;;;;;;;24.40;4.57;;;;;;;13.30;61.17;100464.47;5035155;28;20476;-87
2021/05/21 03:38:03;;;;;;;25.33;4.57;;;;;;;13.58;59.57;100474.09;5035207;28;20038;-87
2021/05/21 03:40:31;;;;;;;19.50;3.50;;;;;;;13.66;60.01;100455.19;5035157;28;20129;-88
2021/05/21 03:42:58;;;;;;;21.60;3.55;;;;;;;13.58;60.30;100458.13;5034924;28;20041;-87
2021/05/21 03:45:25;;;;;;;19.98;3.70;;;;;;;13.20;61.30;100463.94;5034889;28;20025;-90
2021/05/21 03:47:51;;;;;;;24.50;3.72;;;;;;;13.41;60.79;100453.47;5034630;28;20026;-89
2021/05/21 03:50:21;;;;;;;20.15;4.80;;;;;;;13.07;62.37;100452.00;5035230;28;20037;-89
2021/05/21 03:52:48;;;;;;;25.48;4.13;;;;;;;13.26;62.16;100444.22;5028735;28;20370;-87
2021/05/21 03:55:16;;;;;;;26.33;3.92;;;;;;;13.45;61.26;100447.09;5034735;28;20066;-88
2021/05/21 03:57:43;;;;;;;30.98;3.92;;;;;;;13.23;61.49;100457.63;5035016;28;20052;-88
2021/05/21 04:00:13;;;;;;;20.60;3.45;;;;;;;13.18;61.70;100444.50;5035026;28;20029;-87
2021/05/21 04:02:39;;;;;;;29.88;4.38;;;;;;;13.42;60.53;100440.09;5042837;28;20029;-87
2021/05/21 04:05:06;;;;;;;20.73;4.47;;;;;;;13.48;61.05;100440.78;5034333;28;20520;-85
2021/05/21 04:07:32;;;;;;;20.20;4.38;;;;;;;13.67;60.04;100444.47;5033481;28;20029;-88
2021/05/21 04:09:59;;;;;;;15.48;3.08;;;;;;;13.59;60.25;100428.78;5033979;28;20029;-88
2021/05/21 04:12:25;;;;;;;26.23;4.13;;;;;;;13.49;59.97;100435.38;5034292;28;20465;-85
2021/05/21 04:14:52;;;;;;;25.30;4.40;;;;;;;13.41;60.13;100433.03;5034586;28;20476;-88
2021/05/21 04:17:20;;;;;;;14.73;4.15;;;;;;;13.62;59.64;100426.94;5034266;28;20029;-87
2021/05/21 04:19:47;;;;;;;18.77;3.28;;;;;;;13.71;58.53;100415.94;5034471;28;20028;-89
2021/05/21 04:22:13;;;;;;;17.90;3.45;;;;;;;13.69;58.67;100423.09;5034138;28;20025;-89
2021/05/21 04:24:40;;;;;;;19.98;3.75;;;;;;;13.73;57.76;100411.38;5034294;28;20029;-87
2021/05/21 04:27:07;;;;;;;31.58;3.72;;;;;;;13.64;58.95;100409.97;5034593;28;20116;-87
2021/05/21 04:29:34;;;;;;;17.98;4.72;;;;;;;13.68;58.50;100406.28;5034209;28;20091;-86
2021/05/21 04:32:02;;;;;;;24.15;5.10;;;;;;;13.75;58.10;100404.22;5028109;28;20030;-87
2021/05/21 04:34:28;;;;;;;19.35;4.05;;;;;;;13.94;57.61;100411.47;5023137;28;20422;-87
2021/05/21 04:36:56;;;;;;;16.83;3.35;;;;;;;13.74;57.93;100411.34;5017541;28;20036;-89
2021/05/21 04:39:22;;;;;;;17.17;3.10;;;;;;;13.66;58.00;100400.13;5029372;28;20025;-89
2021/05/21 04:41:49;;;;;;;25.90;4.30;;;;;;;13.79;57.68;100387.19;5034536;28;20104;-90
2021/05/21 04:44:15;;;;;;;24.13;3.95;;;;;;;13.85;57.76;100391.41;5034237;28;20041;-88
2021/05/21 04:46:44;;;;;;;25.55;4.20;;;;;;;14.06;57.52;100386.97;5034087;28;20025;-86
2021/05/21 04:49:10;;;;;;;16.05;3.22;;;;;;;14.12;57.32;100381.41;5033150;28;20037;-88
2021/05/21 04:51:37;;;;;;;18.95;3.55;;;;;;;13.91;56.92;100375.16;5032550;28;20026;-91
2021/05/21 04:54:04;;;;;;;22.65;3.17;;;;;;;14.21;56.58;100367.66;5033816;28;20040;-88
2021/05/21 04:56:30;;;;;;;20.65;4.32;;;;;;;13.99;56.03;100396.16;5033745;28;20029;-87
2021/05/21 04:58:57;;;;;;;20.40;3.72;;;;;;;14.11;55.84;100369.00;5033845;28;20026;-87
2021/05/21 05:01:24;;;;;;;13.38;3.40;;;;;;;14.39;55.41;100354.47;5024696;28;20043;-89
2021/05/21 05:03:50;;;;;;;14.98;3.95;;;;;;;14.33;55.71;100357.41;5032456;28;20052;-85
2021/05/21 05:06:16;;;;;;;18.45;3.30;;;;;;;14.44;54.41;100355.13;5029422;28;20064;-87
2021/05/21 05:08:42;;;;;;;22.10;3.78;;;;;;;14.17;54.66;100355.41;5032378;28;20437;-87
2021/05/21 05:11:08;;;;;;;22.33;4.15;;;;;;;14.55;54.08;100358.22;5033142;28;20400;-89
2021/05/21 05:13:34;;;;;;;21.65;3.47;;;;;;;14.47;54.37;100352.34;5044682;28;20041;-89
2021/05/21 05:16:01;;;;;;;22.05;4.65;;;;;;;14.54;53.66;100366.25;5039215;28;20451;-89
2021/05/21 05:18:27;;;;;;;18.20;3.58;;;;;;;14.57;53.83;100352.81;5043027;28;20020;-90
2021/05/21 05:20:53;;;;;;;17.88;3.67;;;;;;;14.62;53.44;100329.47;5033141;28;20021;-89
2021/05/21 05:23:19;;;;;;;13.88;3.63;;;;;;;14.07;53.83;100338.97;5026523;28;20533;-89
2021/05/21 05:25:46;;;;;;;18.17;4.22;;;;;;;14.45;53.24;100342.69;5031366;28;20468;-90
2021/05/21 05:28:20;;;;;;;16.25;2.95;;;;;;;14.76;52.79;100339.53;5028695;28;20037;-83
2021/05/21 05:30:52;;;;;;;15.93;3.63;;;;;;;14.56;52.96;100335.94;5036086;28;20040;-83
2021/05/21 05:33:24;;;;;;;15.27;3.47;;;;;;;14.75;52.22;100329.81;5020379;28;20042;-88
2021/05/21 05:35:51;;;;;;;23.67;4.05;;;;;;;14.54;52.65;100328.94;5022391;28;20060;-87
2021/05/21 05:38:17;;;;;;;20.73;3.70;;;;;;;14.48;52.46;100331.88;5026226;28;20030;-80
2021/05/21 05:40:45;;;;;;;15.68;2.90;;;;;;;14.62;52.59;100336.63;5028586;28;20033;-88
2021/05/21 05:43:11;;;;;;;17.52;3.40;;;;;;;14.50;52.60;100346.88;5026382;28;20022;-82
2021/05/21 05:45:37;;;;;;;19.95;3.92;;;;;;;14.44;52.61;100320.50;5030908;28;20064;-86
2021/05/21 05:48:03;;;;;;;18.13;3.67;;;;;;;14.54;52.60;100321.84;5041555;28;20615;-86
2021/05/21 05:50:29;;;;;;;19.75;4.05;;;;;;;14.31;52.76;100311.34;5041910;28;20040;-86
2021/05/21 05:52:55;;;;;;;16.98;3.05;;;;;;;14.57;51.74;100315.50;5036998;28;20102;-86
2021/05/21 05:55:22;;;;;;;18.13;3.85;;;;;;;14.47;52.20;100312.38;5035542;28;20037;-87
2021/05/21 05:57:48;;;;;;;20.98;3.75;;;;;;;14.45;51.99;100316.03;5030753;28;20071;-89
2021/05/21 06:00:14;;;;;;;21.08;3.55;;;;;;;14.57;51.57;100315.50;5029681;28;20029;-88
2021/05/21 06:02:40;;;;;;;15.88;3.70;;;;;;;14.55;51.99;100312.91;5031225;28;20025;-83
2021/05/21 06:05:07;;;;;;;20.45;4.20;;;;;;;14.81;50.97;100310.00;5031399;28;20182;-85
2021/05/21 06:07:33;;;;;;;19.77;3.50;;;;;;;14.76;50.91;100299.53;5042871;28;20028;-87
2021/05/21 06:09:59;;;;;;;17.17;3.83;;;;;;;14.69;50.39;100308.75;5048133;28;20048;-85
2021/05/21 06:12:25;;;;;;;19.33;3.40;;;;;;;14.95;50.25;100293.34;5050346;28;20013;-87
2021/05/21 06:14:52;;;;;;;17.90;3.08;;;;;;;14.84;50.82;100292.06;5047686;28;20108;-87
2021/05/21 06:17:19;;;;;;;22.52;4.40;;;;;;;14.98;50.92;100283.41;5047085;28;20025;-88
2021/05/21 06:19:47;;;;;;;17.63;3.35;;;;;;;15.01;50.91;100298.41;5041990;28;20026;-85
2021/05/21 06:22:13;;;;;;;19.25;3.25;;;;;;;14.96;50.82;100289.75;5033697;28;20030;-86
2021/05/21 06:24:42;;;;;;;23.58;4.20;;;;;;;14.95;50.31;100294.22;5038796;28;20037;-87
2021/05/21 06:27:19;;;;;;;21.25;4.72;;;;;;;15.09;50.43;100292.69;5034684;28;20060;-86
2021/05/21 06:29:53;;;;;;;23.30;3.47;;;;;;;15.22;49.91;100295.66;5021478;28;20377;-85
2021/05/21 06:32:19;;;;;;;18.00;4.32;;;;;;;15.19;50.25;100297.53;5032013;28;20029;-88
2021/05/21 06:34:45;;;;;;;19.00;3.53;;;;;;;15.25;49.74;100308.84;5031975;28;20025;-82
2021/05/21 06:37:13;;;;;;;18.08;4.38;;;;;;;15.31;49.72;100290.72;5033842;28;20420;-87
2021/05/21 06:39:39;;;;;;;22.13;3.40;;;;;;;14.93;50.68;100292.53;5035999;28;20029;-87
2021/05/21 06:42:06;;;;;;;19.45;3.47;;;;;;;15.24;49.77;100297.31;5037486;28;20027;-88
2021/05/21 06:44:32;;;;;;;23.23;3.85;;;;;;;15.31;50.07;100289.88;5036242;28;20022;-89
2021/05/21 06:46:58;;;;;;;21.52;4.30;;;;;;;15.46;49.72;100291.75;5036387;28;20082;-84
2021/05/21 06:49:25;;;;;;;14.55;3.13;;;;;;;15.15;50.01;100290.63;5046653;28;20040;-84
2021/05/21 06:51:53;;;;;;;33.17;5.30;;;;;;;15.13;50.33;100302.31;5040422;28;20038;-86
2021/05/21 06:54:19;;;;;;;14.38;3.15;;;;;;;14.80;50.55;100303.78;5044537;28;20086;-88
2021/05/21 06:56:45;;;;;;;19.17;2.90;;;;;;;14.84;51.08;100275.19;5048756;28;20033;-88
2021/05/21 06:59:13;;;;;;;16.65;4.50;;;;;;;15.04;50.36;100298.25;5047860;28;20572;-83
2021/05/21 07:01:39;;;;;;;18.83;3.40;;;;;;;14.91;51.13;100319.31;5021741;28;20040;-87
2021/05/21 07:04:05;;;;;;;12.00;3.35;;;;;;;15.28;50.50;100301.56;5047650;28;20033;-88
2021/05/21 07:06:32;;;;;;;20.67;3.45;;;;;;;15.23;51.15;100286.69;5037936;28;20041;-87
2021/05/21 07:08:59;;;;;;;15.25;3.13;;;;;;;15.37;50.95;100294.91;5036516;28;20033;-88
2021/05/21 07:11:25;;;;;;;25.90;4.00;;;;;;;15.28;51.19;100317.56;5036956;28;20041;-87
2021/05/21 07:13:57;;;;;;;22.75;4.63;;;;;;;15.10;52.28;100319.28;5035763;28;20045;-92
2021/05/21 07:16:23;;;;;;;16.20;3.88;;;;;;;15.06;51.84;100306.19;5035283;28;20044;-92
2021/05/21 07:18:49;;;;;;;16.70;3.65;;;;;;;15.52;50.88;100303.97;5035873;28;20080;-86
2021/05/21 07:21:15;;;;;;;20.38;3.75;;;;;;;15.48;50.59;100308.59;5035651;28;20053;-93
2021/05/21 07:23:42;;;;;;;24.67;3.72;;;;;;;15.47;50.28;100301.50;5037134;28;20033;-89
2021/05/21 07:26:08;;;;;;;22.98;6.13;;;;;;;15.19;49.55;100302.00;5037387;28;20030;-93
2021/05/21 07:28:34;;;;;;;21.20;3.70;;;;;;;15.20;49.60;100299.25;5034417;28;20512;-90
2021/05/21 07:31:01;;;;;;;18.67;3.53;;;;;;;15.33;49.96;100298.66;5039673;28;20041;-93
2021/05/21 07:33:41;;;;;;;15.38;3.30;;;;;;;15.73;49.19;100291.34;5036187;28;20037;-94
2021/05/21 07:36:07;;;;;;;18.27;3.50;;;;;;;15.43;48.22;100310.63;5035433;28;20124;-93
2021/05/21 07:38:36;;;;;;;25.88;4.18;;;;;;;15.22;48.44;100295.66;5035425;28;20033;-89
2021/05/21 07:41:03;;;;;;;19.98;3.72;;;;;;;15.39;48.94;100293.03;5035208;28;20057;-91
2021/05/21 07:43:29;;;;;;;16.80;4.03;;;;;;;15.85;48.56;100301.44;5034313;28;20039;-93
2021/05/21 07:46:01;;;;;;;20.98;3.42;;;;;;;15.89;49.72;100291.47;5035226;28;20044;-91
2021/05/21 07:48:27;;;;;;;20.95;4.93;;;;;;;15.68;50.56;100294.25;5023032;28;20123;-90
2021/05/21 07:50:54;;;;;;;17.77;3.40;;;;;;;15.48;49.91;100283.72;5034024;28;20038;-91
2021/05/21 07:53:21;;;;;;;17.38;3.30;;;;;;;15.75;49.83;100293.94;5033782;28;20503;-90
2021/05/21 07:55:48;;;;;;;17.33;4.05;;;;;;;15.73;50.15;100278.00;5034041;28;20033;-93
2021/05/21 07:58:15;;;;;;;20.00;4.20;;;;;;;15.92;50.33;100280.63;5041989;28;20539;-91
2021/05/21 08:00:42;;;;;;;16.67;3.33;;;;;;;15.96;49.97;100282.22;5048146;28;20075;-80
2021/05/21 08:03:08;;;;;;;23.15;3.50;;;;;;;15.94;49.72;100277.88;5047772;28;20037;-91
2021/05/21 08:05:35;;;;;;;16.00;3.05;;;;;;;15.96;50.29;100284.88;5035435;28;20033;-84
2021/05/21 08:08:01;;;;;;;21.95;3.47;;;;;;;16.18;49.89;100286.41;5049614;28;20099;-89
2021/05/21 08:10:27;;;;;;;17.42;3.05;;;;;;;16.16;49.16;100273.16;5044781;28;20499;-84
2021/05/21 08:12:56;;;;;;;19.55;3.80;;;;;;;16.16;49.31;100262.47;5034377;28;20041;-96
2021/05/21 08:15:23;;;;;;;16.45;2.80;;;;;;;16.01;50.22;100266.78;5035041;28;20036;-89
2021/05/21 08:17:50;;;;;;;15.82;3.30;;;;;;;15.73;50.32;100272.66;5039352;28;20374;-90
2021/05/21 08:20:16;;;;;;;16.85;2.90;;;;;;;16.10;49.88;100276.13;5037530;28;20384;-87
2021/05/21 08:22:47;;;;;;;13.93;2.95;;;;;;;16.09;49.57;100277.06;5046938;28;20507;-89
2021/05/21 08:25:14;;;;;;;12.15;2.88;;;;;;;16.23;48.78;100264.81;5047325;28;20029;-88
2021/05/21 08:27:42;;;;;;;18.17;4.05;;;;;;;15.99;50.23;100259.81;5038365;28;20047;-87
2021/05/21 08:30:12;;;;;;;12.05;2.83;;;;;;;16.01;49.74;100274.81;5042729;28;20056;-89
2021/05/21 08:32:38;;;;;;;19.67;3.45;;;;;;;15.28;50.54;100268.69;5047702;28;20021;-85
2021/05/21 08:35:24;;;;;;;14.98;3.58;;;;;;;15.82;50.35;100287.38;5038496;28;20033;-91
2021/05/21 08:37:51;;;;;;;18.48;3.20;;;;;;;15.92;50.94;100274.41;5043932;28;20068;-91
2021/05/21 08:40:28;;;;;;;17.05;3.33;;;;;;;15.95;50.45;100260.88;5040076;28;20029;-91
2021/05/21 08:42:58;;;;;;;15.63;3.45;;;;;;;15.96;50.01;100265.28;5034439;28;20033;-89
2021/05/21 08:45:28;;;;;;;18.48;3.88;;;;;;;15.81;50.16;100253.56;5028475;28;20033;-89
2021/05/21 08:47:55;;;;;;;11.85;2.78;;;;;;;16.11;49.42;100251.16;5034048;28;20508;-88
2021/05/21 08:50:39;;;;;;;10.05;2.60;;;;;;;16.37;49.35;100266.75;5023174;28;20104;-90
2021/05/21 08:53:05;;;;;;;19.05;3.35;;;;;;;15.88;49.20;100259.50;5046139;28;20206;-89
2021/05/21 08:55:32;;;;;;;23.48;4.18;;;;;;;15.67;49.81;100263.13;5046920;28;20482;-86
2021/05/21 08:58:00;;;;;;;15.60;3.15;;;;;;;15.72;49.58;100262.91;5042658;28;20021;-90
2021/05/21 09:00:26;;;;;;;19.33;3.35;;;;;;;15.95;49.42;100250.19;5029480;28;20043;-89
2021/05/21 09:02:53;;;;;;;14.80;3.78;;;;;;;15.73;49.75;100261.97;5033241;28;20029;-90
2021/05/21 09:05:19;;;;;;;16.70;3.17;;;;;;;15.41;49.63;100274.25;5025305;28;20026;-88
2021/05/21 09:07:46;;;;;;;14.52;4.15;;;;;;;15.96;48.93;100282.22;5034362;28;20048;-85
2021/05/21 09:10:25;;;;;;;18.95;3.92;;;;;;;15.98;49.65;100253.56;5045210;28;20499;-86
2021/05/21 09:12:53;;;;;;;13.10;2.72;;;;;;;16.15;49.03;100266.06;5051200;28;20114;-84
2021/05/21 09:15:23;;;;;;;13.43;3.00;;;;;;;15.78;49.40;100267.94;5046006;28;20191;-89
2021/05/21 09:18:05;;;;;;;19.40;3.45;;;;;;;15.63;50.00;100280.25;5030877;28;20056;-90
2021/05/21 09:20:35;;;;;;;13.82;2.85;;;;;;;16.07;49.22;100275.44;5030581;28;20037;-86
2021/05/21 09:23:08;;;;;;;18.20;3.78;;;;;;;16.07;49.06;100272.75;5038619;28;20041;-90
2021/05/21 09:25:40;;;;;;;13.85;2.78;;;;;;;15.82;50.13;100280.22;5039477;28;20047;-92
2021/05/21 09:28:27;;;;;;;10.02;2.70;;;;;;;15.90;49.44;100276.28;5033494;28;20392;-91
2021/05/21 09:31:14;;;;;;;16.52;3.78;;;;;;;16.11;49.32;100275.19;5032945;28;20085;-89
2021/05/21 09:33:44;;;;;;;18.50;3.35;;;;;;;16.24;48.68;100258.53;5046973;28;20029;-89
2021/05/21 09:36:11;;;;;;;11.95;2.75;;;;;;;16.01;48.45;100268.59;5048001;28;20029;-90
2021/05/21 09:38:50;;;;;;;13.02;3.38;;;;;;;16.35;48.34;100261.47;5045542;28;20028;-90
2021/05/21 09:41:17;;;;;;;12.70;2.90;;;;;;;16.23;49.10;100254.13;5041645;28;20034;-91
2021/05/21 09:43:50;;;;;;;20.17;2.88;;;;;;;16.66;48.46;100265.19;5033372;28;20048;-92
2021/05/21 09:46:18;;;;;;;17.55;3.47;;;;;;;16.85;47.79;100250.75;5043128;28;20021;-91
2021/05/21 09:48:45;;;;;;;14.38;3.15;;;;;;;16.76;47.07;100244.09;5048558;28;20490;-82
2021/05/21 09:51:13;;;;;;;15.20;2.75;;;;;;;17.11;46.32;100244.84;5049901;28;20107;-89
2021/05/21 09:53:51;;;;;;;17.73;3.47;;;;;;;17.05;45.83;100242.50;5042355;28;20026;-89
2021/05/21 09:56:20;;;;;;;19.83;2.88;;;;;;;17.05;45.02;100239.84;5047972;28;20032;-88
2021/05/21 09:58:47;;;;;;;20.42;4.05;;;;;;;17.10;45.99;100224.38;5044675;28;20022;-90
2021/05/21 10:03:57;;;;;;;12.25;2.65;;;;;;;17.05;46.87;100244.34;5109283;27;20403;-90
2021/05/21 10:06:26;;;;;;;10.32;2.55;;;;;;;16.94;46.71;100256.50;5095198;28;20036;-88
2021/05/21 10:08:56;;;;;;;11.45;2.40;;;;;;;16.93;46.20;100235.19;5089855;28;20437;-89
2021/05/21 10:11:22;;;;;;;15.65;2.95;;;;;;;17.09;45.69;100252.09;5090105;28;20055;-88
2021/05/21 10:14:10;;;;;;;13.18;2.88;;;;;;;17.42;45.41;100269.84;5089128;28;20040;-89
2021/05/21 10:16:58;;;;;;;17.10;2.72;;;;;;;17.19;44.70;100243.56;5087345;28;20040;-88
2021/05/21 10:19:26;;;;;;;14.70;2.47;;;;;;;17.28;45.34;100249.25;5088277;28;20032;-89
2021/05/21 10:21:55;;;;;;;13.25;2.30;;;;;;;17.44;45.84;100253.69;5081393;28;20547;-88
2021/05/21 10:24:25;;;;;;;10.60;2.45;;;;;;;17.60;46.18;100261.69;5089347;28;20028;-88
2021/05/21 10:26:55;;;;;;;9.80;2.20;;;;;;;17.68;46.06;100263.91;5089176;28;20052;-88
2021/05/21 10:29:25;;;;;;;16.30;3.30;;;;;;;17.45;46.00;100269.66;5089592;28;20067;-88
2021/05/21 10:31:53;;;;;;;13.73;3.08;;;;;;;17.20;46.27;100282.75;5088023;28;20089;-84
2021/05/21 10:34:21;;;;;;;14.43;2.83;;;;;;;17.49;46.30;100245.41;5087118;28;20115;-84
2021/05/21 10:36:48;;;;;;;12.18;3.45;;;;;;;17.85;45.06;100238.81;5089706;28;20486;-89
2021/05/21 10:39:19;;;;;;;11.27;3.20;;;;;;;17.41;44.94;100257.41;5088937;28;20020;-88
2021/05/21 10:44:37;;;;;;;14.68;2.70;;;;;;;18.07;43.32;100244.63;5069197;28;20422;-88
2021/05/21 10:47:25;;;;;;;13.90;3.17;;;;;;;18.04;43.20;100238.59;5049152;28;20381;-87
2021/05/21 10:52:59;;;;;;;9.80;2.83;;;;;;;17.65;43.93;100256.94;5074865;27;20404;-89
2021/05/21 10:55:55;;;;;;;12.80;2.37;;;;;;;18.04;43.56;100260.88;5056347;28;20025;-89
2021/05/21 10:58:30;;;;;;;6.82;2.47;;;;;;;18.11;43.62;100240.78;5049133;28;20116;-85
2021/05/21 11:01:16;;;;;;;10.38;2.38;;;;;;;18.16;43.19;100215.53;5052601;28;20041;-84
2021/05/21 11:06:57;;;;;;;6.68;2.20;;;;;;;17.84;42.56;100245.13;5048538;28;20841;-89
2021/05/21 11:09:29;;;;;;;8.07;1.63;;;;;;;18.27;40.56;100240.72;5029045;28;20054;-87
2021/05/21 11:17:26;;;;;;;16.58;2.00;;;;;;;18.43;40.41;100243.31;5064403;27;20430;-90
2021/05/21 11:20:13;;;;;;;7.43;2.08;;;;;;;18.34;40.64;100235.81;5060729;28;20033;-85
2021/05/21 11:22:42;;;;;;;10.57;1.80;;;;;;;18.96;40.85;100218.53;5049196;28;20406;-85
2021/05/21 11:27:51;;;;;;;9.30;2.13;;;;;;;19.26;41.17;100211.25;5074343;27;20402;-87
2021/05/21 11:30:19;;;;;;;6.25;1.85;;;;;;;19.41;40.18;100223.66;5068331;28;20111;-87
2021/05/21 11:32:45;;;;;;;9.63;2.05;;;;;;;18.92;40.85;100203.59;5065276;28;20035;-86
2021/05/21 11:35:12;;;;;;;5.97;1.88;;;;;;;19.12;41.85;100196.06;5067038;28;20468;-85
2021/05/21 11:37:41;;;;;;;9.70;2.20;;;;;;;19.03;42.11;100193.00;5067028;28;20037;-87
2021/05/21 11:40:09;;;;;;;11.57;2.47;;;;;;;18.94;41.81;100206.16;5068961;28;20075;-88
2021/05/21 11:42:36;;;;;;;12.38;1.95;;;;;;;19.22;41.46;100194.47;5068990;28;20040;-88